Terminal Aerodrome Forecast
Issued by NWS

Home | Current Version | Previous Version | Text Only | Print | Product List | Glossary On
Versions: 1 2 3 4 5 6 7 8 9 10 11 12 13 14 15 16 17 18 19
302
FTUS46 KMTR 052338
TAFOAK
TAF
KOAK 052338Z 0600/0706 27005KT P6SM FEW015 OVC020
     FM060200 30005KT P6SM BKN200
     FM060900 34005KT P6SM FEW020 SCT200
     FM062000 28008KT P6SM SCT200
     FM070300 28008KT P6SM SCT020=

USA.gov is the U.S. government's official web portal to all federal, state and local government web resources and services.